createdAt,value
2019-03-16T00:00:12.348Z,0
2019-03-16T00:01:13.802Z,0
2019-03-16T00:02:15.209Z,0
2019-03-16T00:03:16.603Z,0
2019-03-16T00:04:17.997Z,0
2019-03-16T00:05:19.385Z,0
2019-03-16T00:06:20.781Z,0
2019-03-16T00:07:32.460Z,0
2019-03-16T00:08:23.560Z,0
2019-03-16T00:09:24.946Z,0
2019-03-16T00:10:26.408Z,0
2019-03-16T00:11:27.809Z,0
2019-03-16T00:12:29.251Z,0
2019-03-16T00:13:30.620Z,0
2019-03-16T00:14:32.034Z,0
2019-03-16T00:15:33.430Z,0
2019-03-16T00:16:34.818Z,0
2019-03-16T00:17:36.226Z,0
2019-03-16T00:18:37.616Z,0
2019-03-16T00:19:44.227Z,0
2019-03-16T00:20:45.379Z,0
2019-03-16T00:21:46.782Z,0
2019-03-16T00:22:48.192Z,0
2019-03-16T00:23:49.600Z,0
2019-03-16T00:24:51.005Z,0
2019-03-16T00:25:52.422Z,0
2019-03-16T00:26:53.864Z,0
2019-03-16T00:27:55.285Z,0
2019-03-16T00:28:56.776Z,0
2019-03-16T00:29:58.181Z,0
2019-03-16T00:30:59.624Z,0
2019-03-16T00:32:12.833Z,0
2019-03-16T00:33:02.471Z,0
2019-03-16T00:34:03.898Z,0
2019-03-16T00:35:05.325Z,0
2019-03-16T00:36:06.722Z,0
2019-03-16T00:37:08.155Z,0
2019-03-16T00:38:09.564Z,0
2019-03-16T00:39:11.019Z,0
2019-03-16T00:40:12.439Z,0
2019-03-16T00:41:13.844Z,0
2019-03-16T00:42:15.299Z,0
2019-03-16T00:43:16.717Z,0
2019-03-16T00:44:18.137Z,0
2019-03-16T00:45:19.534Z,0
2019-03-16T00:46:20.978Z,0
2019-03-16T00:47:22.410Z,0
2019-03-16T00:48:23.911Z,0
2019-03-16T00:49:25.341Z,0
2019-03-16T00:50:26.730Z,0
2019-03-16T00:51:28.144Z,0
2019-03-16T00:52:29.536Z,0
2019-03-16T00:53:30.929Z,0
2019-03-16T00:54:32.355Z,0
2019-03-16T00:55:33.740Z,0
2019-03-16T00:56:35.144Z,0
2019-03-16T00:57:36.571Z,0
2019-03-16T00:58:37.970Z,0
2019-03-16T00:59:39.362Z,0
2019-03-16T01:00:40.771Z,0
2019-03-16T01:01:42.168Z,0
2019-03-16T01:02:43.561Z,0
2019-03-16T01:03:44.993Z,0
2019-03-16T01:04:46.420Z,0
2019-03-16T01:05:47.823Z,0
2019-03-16T01:06:49.246Z,0
2019-03-16T01:07:50.706Z,0
2019-03-16T01:08:52.115Z,0
2019-03-16T01:09:53.535Z,0
2019-03-16T01:10:54.953Z,0
2019-03-16T01:11:57.631Z,0
2019-03-16T01:12:59.044Z,0
2019-03-16T01:14:00.453Z,0
2019-03-16T01:15:01.871Z,0
2019-03-16T01:16:03.285Z,0
2019-03-16T01:17:04.695Z,0
2019-03-16T01:18:06.126Z,0
2019-03-16T01:19:07.610Z,0
2019-03-16T01:20:09.025Z,0
2019-03-16T01:21:10.518Z,0
2019-03-16T01:22:11.954Z,0
2019-03-16T01:23:13.366Z,0
2019-03-16T01:24:14.780Z,0
2019-03-16T01:25:16.234Z,0
2019-03-16T01:26:17.644Z,0
2019-03-16T01:27:19.054Z,0
2019-03-16T01:28:20.464Z,0
2019-03-16T01:29:21.855Z,0
2019-03-16T01:30:23.263Z,0
2019-03-16T01:31:24.695Z,0
2019-03-16T01:32:39.620Z,0
2019-03-16T01:33:27.450Z,0
2019-03-16T01:34:28.895Z,0
2019-03-16T01:35:30.291Z,0
2019-03-16T01:36:31.721Z,0
2019-03-16T01:37:33.148Z,0
2019-03-16T01:38:34.612Z,0
2019-03-16T01:39:36.021Z,0
2019-03-16T01:40:37.417Z,0
2019-03-16T01:41:38.813Z,0
2019-03-16T01:42:40.228Z,0
2019-03-16T01:43:41.620Z,0
2019-03-16T01:44:43.024Z,0
2019-03-16T01:45:44.415Z,0
2019-03-16T01:46:45.862Z,0
2019-03-16T01:47:47.313Z,0
2019-03-16T01:48:48.725Z,0
2019-03-16T01:49:50.115Z,0
2019-03-16T01:50:51.525Z,0
2019-03-16T01:51:52.930Z,0
2019-03-16T01:52:54.332Z,0
2019-03-16T01:53:55.734Z,0
2019-03-16T01:54:57.136Z,0
2019-03-16T01:55:58.561Z,0
2019-03-16T01:56:59.988Z,0
2019-03-16T01:58:01.433Z,0
2019-03-16T01:59:02.830Z,0
2019-03-16T02:00:04.242Z,0
2019-03-16T02:01:05.653Z,0
2019-03-16T02:02:07.065Z,0
2019-03-16T02:03:08.449Z,0
2019-03-16T02:04:09.861Z,0
2019-03-16T02:05:11.259Z,0
2019-03-16T02:06:12.657Z,0
2019-03-16T02:07:14.151Z,0
2019-03-16T02:08:15.511Z,0
2019-03-16T02:09:16.928Z,0
2019-03-16T02:10:18.325Z,0
2019-03-16T02:11:19.715Z,0
2019-03-16T02:12:21.113Z,0
2019-03-16T02:13:22.512Z,0
2019-03-16T02:14:23.917Z,0
2019-03-16T02:15:25.381Z,0
2019-03-16T02:16:26.776Z,0
2019-03-16T02:17:28.816Z,0
2019-03-16T02:18:30.312Z,0
2019-03-16T02:19:31.636Z,0
2019-03-16T02:20:33.058Z,0
2019-03-16T02:21:34.567Z,0
2019-03-16T02:22:35.805Z,0
2019-03-16T02:23:37.207Z,0
2019-03-16T02:24:38.641Z,0
2019-03-16T02:25:40.053Z,0
2019-03-16T02:26:41.446Z,0
2019-03-16T02:27:42.851Z,0
2019-03-16T02:28:44.246Z,0
2019-03-16T02:29:45.640Z,0
2019-03-16T02:30:47.020Z,0
2019-03-16T02:31:48.422Z,0
2019-03-16T02:32:49.835Z,0
2019-03-16T02:33:51.929Z,0
2019-03-16T02:34:53.379Z,0
2019-03-16T02:35:54.845Z,0
2019-03-16T02:36:56.273Z,0
2019-03-16T02:37:57.699Z,0
2019-03-16T02:38:59.097Z,0
2019-03-16T02:40:00.482Z,0
2019-03-16T02:41:01.893Z,0
2019-03-16T02:42:03.295Z,0
2019-03-16T02:43:04.700Z,0
2019-03-16T02:44:06.157Z,0
2019-03-16T02:45:07.622Z,0
2019-03-16T02:46:09.004Z,0
2019-03-16T02:47:10.408Z,0
2019-03-16T02:48:12.720Z,0
2019-03-16T02:49:14.201Z,0
2019-03-16T02:50:15.531Z,0
2019-03-16T02:51:16.962Z,0
2019-03-16T02:52:18.365Z,0
2019-03-16T02:53:19.797Z,0
2019-03-16T02:54:21.236Z,0
2019-03-16T02:55:22.776Z,0
2019-03-16T02:56:24.180Z,0
2019-03-16T02:57:25.572Z,0
2019-03-16T02:58:27.065Z,0
2019-03-16T02:59:28.461Z,0
2019-03-16T03:00:29.875Z,0
2019-03-16T03:01:31.268Z,0
2019-03-16T03:02:32.665Z,0
2019-03-16T03:03:34.045Z,0
2019-03-16T03:04:35.463Z,0
2019-03-16T03:05:36.902Z,0
2019-03-16T03:06:38.304Z,0
2019-03-16T03:07:39.714Z,0
2019-03-16T03:08:41.135Z,0
2019-03-16T03:09:42.551Z,0
2019-03-16T03:10:43.946Z,0
2019-03-16T03:11:45.356Z,0
2019-03-16T03:12:46.793Z,0
2019-03-16T03:13:48.266Z,0
2019-03-16T03:14:49.673Z,0
2019-03-16T03:15:51.082Z,0
2019-03-16T03:16:52.484Z,0
2019-03-16T03:17:53.946Z,0
2019-03-16T03:18:55.368Z,0
2019-03-16T03:19:56.777Z,0
2019-03-16T03:20:58.176Z,0
2019-03-16T03:21:59.610Z,0
2019-03-16T03:23:01.095Z,0
2019-03-16T03:24:02.501Z,0
2019-03-16T03:25:03.910Z,0
2019-03-16T03:26:05.315Z,0
2019-03-16T03:27:06.709Z,0
2019-03-16T03:28:08.112Z,0
2019-03-16T03:29:09.508Z,0
2019-03-16T03:30:10.956Z,0
2019-03-16T03:31:12.385Z,0
2019-03-16T03:32:13.812Z,0
2019-03-16T03:33:15.247Z,0
2019-03-16T03:34:16.635Z,0
2019-03-16T03:35:18.038Z,0
2019-03-16T03:36:19.449Z,0
2019-03-16T03:37:20.853Z,0
2019-03-16T03:38:22.239Z,0
2019-03-16T03:39:23.634Z,0
2019-03-16T03:40:25.068Z,0
2019-03-16T03:41:26.490Z,0
2019-03-16T03:42:27.873Z,0
2019-03-16T03:43:29.306Z,0
2019-03-16T03:44:30.704Z,0
2019-03-16T03:45:32.109Z,0
2019-03-16T03:46:33.527Z,0
2019-03-16T03:47:35.113Z,0
2019-03-16T03:48:36.520Z,0
2019-03-16T03:49:37.958Z,0
2019-03-16T03:50:39.345Z,0
2019-03-16T03:51:40.732Z,0
2019-03-16T03:52:42.123Z,0
2019-03-16T03:53:43.522Z,0
2019-03-16T03:54:44.908Z,0
2019-03-16T03:55:46.292Z,0
2019-03-16T03:56:47.698Z,0
2019-03-16T03:57:49.095Z,0
2019-03-16T03:58:50.483Z,0
2019-03-16T03:59:51.978Z,0
2019-03-16T04:00:53.236Z,0
2019-03-16T04:01:54.621Z,0
2019-03-16T04:02:56.841Z,0
2019-03-16T04:04:14.113Z,0
2019-03-16T04:04:59.580Z,0
2019-03-16T04:06:00.978Z,0
2019-03-16T04:07:02.393Z,0
2019-03-16T04:08:03.824Z,0
2019-03-16T04:09:05.150Z,0
2019-03-16T04:10:06.545Z,0
2019-03-16T04:11:07.941Z,0
2019-03-16T04:12:09.335Z,0
2019-03-16T04:13:10.723Z,0
2019-03-16T04:14:12.151Z,0
2019-03-16T04:15:13.537Z,0
2019-03-16T04:16:14.931Z,0
2019-03-16T04:17:16.312Z,0
2019-03-16T04:18:17.707Z,0
2019-03-16T04:19:19.120Z,0
2019-03-16T04:20:20.499Z,0
2019-03-16T04:21:21.890Z,0
2019-03-16T04:22:23.270Z,0
2019-03-16T04:23:24.662Z,0
2019-03-16T04:24:26.046Z,0
2019-03-16T04:25:27.440Z,0
2019-03-16T04:26:28.860Z,0
2019-03-16T04:27:30.254Z,0
2019-03-16T04:28:31.644Z,0
2019-03-16T04:29:33.036Z,0
2019-03-16T04:30:34.422Z,0
2019-03-16T04:31:35.810Z,0
2019-03-16T04:32:37.199Z,0
2019-03-16T04:33:38.596Z,0
2019-03-16T04:34:39.980Z,0
2019-03-16T04:35:41.373Z,0
2019-03-16T04:36:42.765Z,0
2019-03-16T04:37:44.155Z,0
2019-03-16T04:38:45.550Z,0
2019-03-16T04:39:46.942Z,0
2019-03-16T04:40:48.329Z,0
2019-03-16T04:41:49.719Z,0
2019-03-16T04:42:51.104Z,0
2019-03-16T04:43:52.534Z,0
2019-03-16T04:44:53.928Z,0
2019-03-16T04:45:55.328Z,0
2019-03-16T04:46:56.754Z,0
2019-03-16T04:47:58.127Z,0
2019-03-16T04:48:59.521Z,0
2019-03-16T04:50:00.916Z,0
2019-03-16T04:51:02.317Z,4
2019-03-16T04:52:03.702Z,4
2019-03-16T04:53:05.103Z,4
2019-03-16T04:54:06.493Z,0
2019-03-16T04:55:07.889Z,4
2019-03-16T04:56:09.285Z,4
2019-03-16T04:57:10.695Z,4
2019-03-16T04:58:12.095Z,4
2019-03-16T04:59:13.501Z,4
2019-03-16T05:00:14.889Z,8
2019-03-16T05:01:16.287Z,8
2019-03-16T05:02:17.673Z,8
2019-03-16T05:03:19.077Z,12
2019-03-16T05:04:20.463Z,12
2019-03-16T05:05:21.874Z,16
2019-03-16T05:06:23.274Z,16
2019-03-16T05:07:24.673Z,20
2019-03-16T05:08:26.068Z,24
2019-03-16T05:09:27.467Z,28
2019-03-16T05:10:28.856Z,32
2019-03-16T05:11:30.244Z,40
2019-03-16T05:12:31.642Z,44
2019-03-16T05:13:33.028Z,52
2019-03-16T05:14:34.418Z,56
2019-03-16T05:15:35.813Z,68
2019-03-16T05:16:37.201Z,76
2019-03-16T05:17:38.595Z,92
2019-03-16T05:18:39.975Z,100
2019-03-16T05:19:41.373Z,108
2019-03-16T05:20:42.777Z,116
2019-03-16T05:21:44.153Z,124
2019-03-16T05:22:45.549Z,136
2019-03-16T05:23:46.985Z,148
2019-03-16T05:24:48.359Z,160
2019-03-16T05:25:49.776Z,176
2019-03-16T05:26:51.199Z,188
2019-03-16T05:27:52.607Z,192
2019-03-16T05:28:54.825Z,204
2019-03-16T05:29:56.228Z,216
2019-03-16T05:30:57.669Z,228
2019-03-16T05:31:59.120Z,256
2019-03-16T05:33:00.476Z,284
2019-03-16T05:34:01.892Z,308
2019-03-16T05:35:03.281Z,340
2019-03-16T05:36:04.666Z,372
2019-03-16T05:37:06.058Z,412
2019-03-16T05:38:07.449Z,452
2019-03-16T05:39:08.834Z,496
2019-03-16T05:40:10.226Z,520
2019-03-16T05:41:11.628Z,540
2019-03-16T05:42:13.007Z,580
2019-03-16T05:43:14.396Z,616
2019-03-16T05:44:15.786Z,696
2019-03-16T05:45:17.166Z,724
2019-03-16T05:46:18.560Z,756
2019-03-16T05:47:19.944Z,816
2019-03-16T05:48:21.337Z,816
2019-03-16T05:49:22.734Z,760
2019-03-16T05:50:24.121Z,804
2019-03-16T05:51:25.505Z,868
2019-03-16T05:52:26.901Z,920
2019-03-16T05:53:28.293Z,964
2019-03-16T05:54:29.677Z,1028
2019-03-16T05:55:31.067Z,1052
2019-03-16T05:56:32.457Z,1132
2019-03-16T05:57:33.846Z,1448
2019-03-16T05:58:35.253Z,1088
2019-03-16T05:59:36.644Z,804
2019-03-16T06:00:38.027Z,852
2019-03-16T06:01:39.424Z,868
2019-03-16T06:02:40.810Z,880
2019-03-16T06:03:42.226Z,816
2019-03-16T06:04:43.638Z,764
2019-03-16T06:05:45.066Z,820
2019-03-16T06:06:46.458Z,836
2019-03-16T06:07:47.946Z,1032
2019-03-16T06:08:49.293Z,1304
2019-03-16T06:09:50.699Z,1352
2019-03-16T06:10:52.092Z,1140
2019-03-16T06:11:53.484Z,1072
2019-03-16T06:12:54.875Z,1236
2019-03-16T06:13:56.265Z,1616
2019-03-16T06:14:57.655Z,1680
2019-03-16T06:15:59.057Z,1536
2019-03-16T06:17:00.509Z,1652
2019-03-16T06:18:01.897Z,1792
2019-03-16T06:19:03.293Z,2060
2019-03-16T06:20:04.727Z,2332
2019-03-16T06:21:06.119Z,2388
2019-03-16T06:22:07.503Z,2184
2019-03-16T06:23:08.916Z,2092
2019-03-16T06:24:10.295Z,1592
2019-03-16T06:25:11.704Z,1348
2019-03-16T06:26:13.107Z,1376
2019-03-16T06:27:14.512Z,1632
2019-03-16T06:28:15.924Z,1696
2019-03-16T06:29:18.296Z,1584
2019-03-16T06:30:20.784Z,1028
2019-03-16T06:31:21.035Z,912
2019-03-16T06:32:22.432Z,948
2019-03-16T06:33:23.847Z,896
2019-03-16T06:34:25.234Z,992
2019-03-16T06:35:29.286Z,944
2019-03-16T06:36:27.998Z,856
2019-03-16T06:37:29.382Z,728
2019-03-16T06:38:30.796Z,740
2019-03-16T06:39:32.184Z,776
2019-03-16T06:40:33.588Z,760
2019-03-16T06:41:34.977Z,836
2019-03-16T06:42:36.369Z,1012
2019-03-16T06:43:37.761Z,1180
2019-03-16T06:44:39.157Z,1164
2019-03-16T06:45:40.567Z,996
2019-03-16T06:46:41.959Z,1152
2019-03-16T06:47:43.360Z,1060
2019-03-16T06:48:44.749Z,1112
2019-03-16T06:49:46.147Z,1440
2019-03-16T06:50:47.565Z,1588
2019-03-16T06:51:48.949Z,1648
2019-03-16T06:52:50.355Z,1704
2019-03-16T06:53:51.767Z,1604
2019-03-16T06:54:53.161Z,1532
2019-03-16T06:55:54.567Z,1744
2019-03-16T06:56:55.948Z,1768
2019-03-16T06:57:57.352Z,1876
2019-03-16T06:58:58.757Z,1728
2019-03-16T07:00:00.145Z,1936
2019-03-16T07:01:01.537Z,1872
2019-03-16T07:02:02.950Z,1868
2019-03-16T07:03:04.345Z,1872
2019-03-16T07:04:05.742Z,1648
2019-03-16T07:05:07.142Z,2092
2019-03-16T07:06:08.530Z,2312
2019-03-16T07:07:09.915Z,2020
2019-03-16T07:08:11.326Z,2140
2019-03-16T07:09:12.712Z,2872
2019-03-16T07:10:14.114Z,2376
2019-03-16T07:11:15.512Z,2312
2019-03-16T07:12:16.911Z,2780
2019-03-16T07:13:18.335Z,3652
2019-03-16T07:14:19.725Z,3760
2019-03-16T07:15:21.147Z,3848
2019-03-16T07:16:22.507Z,4456
2019-03-16T07:17:23.917Z,6780
2019-03-16T07:18:25.313Z,10248
2019-03-16T07:19:26.713Z,7808
2019-03-16T07:20:28.117Z,8008
2019-03-16T07:21:29.491Z,8844
2019-03-16T07:22:30.899Z,8188
2019-03-16T07:23:32.386Z,6732
2019-03-16T07:24:33.607Z,4588
2019-03-16T07:25:34.997Z,5524
2019-03-16T07:26:36.389Z,5928
2019-03-16T07:27:37.787Z,13324
2019-03-16T07:28:39.184Z,13124
2019-03-16T07:29:40.586Z,14340
2019-03-16T07:30:42.010Z,14068
2019-03-16T07:31:43.400Z,8108
2019-03-16T07:32:44.796Z,10672
2019-03-16T07:33:46.209Z,5640
2019-03-16T07:34:47.622Z,13436
2019-03-16T07:35:49.009Z,5840
2019-03-16T07:36:50.409Z,8632
2019-03-16T07:37:51.813Z,16544
2019-03-16T07:38:53.236Z,5944
2019-03-16T07:39:54.628Z,6124
2019-03-16T07:40:56.048Z,5352
2019-03-16T07:42:00.374Z,5764
2019-03-16T07:42:58.832Z,7172
2019-03-16T07:44:00.243Z,3904
2019-03-16T07:45:08.216Z,5180
2019-03-16T07:46:03.019Z,6272
2019-03-16T07:47:04.420Z,5180
2019-03-16T07:48:05.813Z,6224
2019-03-16T07:49:07.216Z,5464
2019-03-16T07:50:08.641Z,5072
2019-03-16T07:51:10.047Z,5600
2019-03-16T07:52:11.455Z,6460
2019-03-16T07:53:12.854Z,13828
2019-03-16T07:54:14.289Z,5916
2019-03-16T07:55:15.706Z,5084
2019-03-16T07:56:17.101Z,11180
2019-03-16T07:57:18.513Z,5504
2019-03-16T07:58:19.906Z,5864
2019-03-16T07:59:21.303Z,7768
2019-03-16T08:00:22.700Z,6024
2019-03-16T08:01:24.104Z,6544
2019-03-16T08:02:25.586Z,7240
2019-03-16T08:05:52.040Z,7476
2019-03-16T08:06:55.145Z,12180
2019-03-16T08:07:58.939Z,16736
2019-03-16T08:09:02.283Z,15744
2019-03-16T08:10:06.821Z,15168
2019-03-16T08:11:09.266Z,6132
2019-03-16T08:12:12.647Z,7152
2019-03-16T08:13:15.484Z,12088
2019-03-16T08:14:17.881Z,5276
2019-03-16T08:15:20.486Z,4972
2019-03-16T08:16:22.977Z,4272
2019-03-16T08:17:25.204Z,3964
2019-03-16T08:18:27.813Z,3796
2019-03-16T08:19:31.689Z,3944
2019-03-16T08:20:34.344Z,4488
2019-03-16T08:21:37.857Z,4820
2019-03-16T08:22:40.946Z,4700
2019-03-16T08:23:42.804Z,4288
2019-03-16T08:24:44.355Z,4720
2019-03-16T08:25:45.765Z,4048
2019-03-16T08:26:47.182Z,3872
2019-03-16T08:27:54.132Z,5116
2019-03-16T08:28:49.954Z,7476
2019-03-16T08:29:51.440Z,10756
2019-03-16T08:30:52.927Z,13280
2019-03-16T08:31:54.408Z,6572
2019-03-16T08:32:55.770Z,8112
2019-03-16T08:33:57.195Z,6372
2019-03-16T08:35:00.460Z,7480
2019-03-16T08:36:00.018Z,7088
2019-03-16T08:37:01.453Z,6180
2019-03-16T08:38:02.850Z,5628
2019-03-16T08:39:04.279Z,6648
2019-03-16T08:40:05.704Z,12268
2019-03-16T08:41:07.131Z,12824
2019-03-16T08:42:08.541Z,6648
2019-03-16T08:43:09.953Z,7928
2019-03-16T08:44:11.430Z,6340
2019-03-16T08:45:12.901Z,6376
2019-03-16T08:46:14.323Z,6672
2019-03-16T08:47:15.803Z,4040
2019-03-16T08:48:22.674Z,4036
2019-03-16T08:49:18.684Z,5204
2019-03-16T08:50:20.110Z,6116
2019-03-16T08:51:21.546Z,5300
2019-03-16T08:52:22.940Z,4572
2019-03-16T08:53:24.371Z,3528
2019-03-16T08:54:25.816Z,3444
2019-03-16T08:55:27.254Z,4104
2019-03-16T08:56:28.706Z,4588
2019-03-16T08:57:30.170Z,3496
2019-03-16T08:58:31.653Z,3604
2019-03-16T08:59:33.068Z,4316
2019-03-16T09:00:34.494Z,4476
2019-03-16T09:01:35.935Z,4276
2019-03-16T09:02:37.371Z,4684
2019-03-16T09:03:43.829Z,5120
2019-03-16T09:04:46.549Z,5280
2019-03-16T09:05:50.340Z,4448
2019-03-16T09:06:53.168Z,5172
2019-03-16T09:07:56.723Z,7124
2019-03-16T09:08:59.994Z,5212
2019-03-16T09:10:05.009Z,5060
2019-03-16T09:11:09.068Z,4204
2019-03-16T09:12:10.470Z,4604
2019-03-16T09:13:11.875Z,4620
2019-03-16T09:14:13.300Z,4536
2019-03-16T09:15:14.731Z,4408
2019-03-16T09:16:16.150Z,5204
2019-03-16T09:17:17.580Z,5728
2019-03-16T09:18:19.004Z,4780
2019-03-16T09:19:20.438Z,4308
2019-03-16T09:20:21.845Z,3848
2019-03-16T09:21:23.262Z,3788
2019-03-16T09:22:24.718Z,3452
2019-03-16T09:23:26.146Z,3536
2019-03-16T09:24:27.592Z,5244
2019-03-16T09:25:29.005Z,4828
2019-03-16T09:26:30.427Z,4628
2019-03-16T09:27:31.878Z,5072
2019-03-16T09:28:33.317Z,9576
2019-03-16T09:29:34.738Z,9200
2019-03-16T09:30:36.162Z,9444
2019-03-16T09:31:37.560Z,8588
2019-03-16T09:32:38.971Z,5384
2019-03-16T09:33:40.386Z,5644
2019-03-16T09:34:41.791Z,9332
2019-03-16T09:35:43.225Z,19680
2019-03-16T09:36:44.617Z,5440
2019-03-16T09:37:46.025Z,4984
2019-03-16T09:38:47.433Z,5248
2019-03-16T09:39:48.835Z,8960
2019-03-16T09:40:50.233Z,6832
2019-03-16T09:41:51.637Z,8276
2019-03-16T09:42:53.034Z,6804
2019-03-16T09:43:54.437Z,7104
2019-03-16T09:44:55.843Z,15776
2019-03-16T09:45:57.201Z,19616
2019-03-16T09:46:58.607Z,22912
2019-03-16T09:48:00.000Z,20384
2019-03-16T09:49:01.400Z,7152
2019-03-16T09:50:02.807Z,5060
2019-03-16T09:51:04.209Z,4260
2019-03-16T09:52:05.629Z,5760
2019-03-16T09:53:07.036Z,4060
2019-03-16T09:54:08.440Z,4944
2019-03-16T09:55:09.851Z,5592
2019-03-16T09:56:11.257Z,8536
2019-03-16T09:57:12.655Z,24960
2019-03-16T09:58:14.065Z,12632
2019-03-16T09:59:15.486Z,10180
2019-03-16T10:00:16.895Z,6480
2019-03-16T10:01:18.295Z,6164
2019-03-16T10:02:19.697Z,13976
2019-03-16T10:03:21.077Z,20736
2019-03-16T10:04:22.473Z,30592
2019-03-16T10:05:23.881Z,30464
2019-03-16T10:06:25.290Z,19680
2019-03-16T10:07:26.695Z,18848
2019-03-16T10:08:28.101Z,9544
2019-03-16T10:09:29.504Z,9804
2019-03-16T10:10:30.916Z,7952
2019-03-16T10:11:32.319Z,6116
2019-03-16T10:12:33.729Z,6640
2019-03-16T10:13:35.154Z,8476
2019-03-16T10:14:37.294Z,8280
2019-03-16T10:15:37.917Z,7324
2019-03-16T10:16:39.325Z,6572
2019-03-16T10:17:40.725Z,6144
2019-03-16T10:18:42.129Z,5708
2019-03-16T10:19:43.522Z,5524
2019-03-16T10:20:44.935Z,5072
2019-03-16T10:21:46.333Z,4892
2019-03-16T10:22:47.734Z,6068
2019-03-16T10:23:49.132Z,6032
2019-03-16T10:24:50.540Z,7068
2019-03-16T10:25:51.950Z,8120
2019-03-16T10:26:53.362Z,5824
2019-03-16T10:27:54.758Z,6004
2019-03-16T10:28:56.168Z,5920
2019-03-16T10:29:57.564Z,4540
2019-03-16T10:30:58.975Z,4124
2019-03-16T10:32:00.396Z,4428
2019-03-16T10:33:01.796Z,6624
2019-03-16T10:34:03.216Z,12524
2019-03-16T10:35:04.625Z,12396
2019-03-16T10:36:06.028Z,11176
2019-03-16T10:37:07.461Z,6336
2019-03-16T10:38:08.875Z,4752
2019-03-16T10:39:10.275Z,4120
2019-03-16T10:40:11.685Z,3776
2019-03-16T10:41:13.092Z,4444
2019-03-16T10:42:14.498Z,5856
2019-03-16T10:43:15.904Z,7904
2019-03-16T10:44:17.307Z,8172
2019-03-16T10:45:18.718Z,7384
2019-03-16T10:46:20.114Z,6804
2019-03-16T10:47:21.530Z,8100
2019-03-16T10:48:22.945Z,6148
2019-03-16T10:49:24.353Z,7924
2019-03-16T10:50:25.760Z,9116
2019-03-16T10:51:27.821Z,6136
2019-03-16T10:52:28.524Z,10872
2019-03-16T10:53:29.930Z,24832
2019-03-16T10:54:31.366Z,22752
2019-03-16T10:55:32.764Z,19968
2019-03-16T10:56:34.170Z,9888
2019-03-16T10:57:35.576Z,23872
2019-03-16T10:58:36.998Z,16352
2019-03-16T10:59:38.414Z,7616
2019-03-16T11:00:39.815Z,7384
2019-03-16T11:01:41.221Z,8136
2019-03-16T11:02:42.618Z,9432
2019-03-16T11:03:44.040Z,14548
2019-03-16T11:04:45.440Z,5688
2019-03-16T11:05:46.856Z,7604
2019-03-16T11:06:48.270Z,5824
2019-03-16T11:07:49.683Z,5236
2019-03-16T11:08:51.084Z,4576
2019-03-16T11:09:52.483Z,4200
2019-03-16T11:10:53.889Z,4408
2019-03-16T11:11:55.288Z,6616
2019-03-16T11:12:56.688Z,4876
2019-03-16T11:13:58.090Z,4816
2019-03-16T11:14:59.498Z,5636
2019-03-16T11:16:00.894Z,5972
2019-03-16T11:17:02.304Z,5792
2019-03-16T11:18:03.709Z,6656
2019-03-16T11:19:05.110Z,6416
2019-03-16T11:20:06.520Z,6208
2019-03-16T11:21:07.948Z,5428
2019-03-16T11:22:09.329Z,5628
2019-03-16T11:23:10.752Z,5004
2019-03-16T11:24:12.154Z,4456
2019-03-16T11:25:13.572Z,3920
2019-03-16T11:26:14.983Z,4228
2019-03-16T11:27:17.383Z,5568
2019-03-16T11:28:17.774Z,6296
2019-03-16T11:29:19.193Z,8588
2019-03-16T11:30:20.593Z,7768
2019-03-16T11:31:22.000Z,7732
2019-03-16T11:32:23.413Z,7236
2019-03-16T11:33:24.811Z,7012
2019-03-16T11:34:26.203Z,6656
2019-03-16T11:35:27.612Z,6196
2019-03-16T11:36:29.009Z,5380
2019-03-16T11:37:30.420Z,4684
2019-03-16T11:38:31.823Z,4736
2019-03-16T11:39:33.224Z,5376
2019-03-16T11:40:34.626Z,5936
2019-03-16T11:41:36.036Z,6504
2019-03-16T11:42:37.455Z,6804
2019-03-16T11:43:38.854Z,6940
2019-03-16T11:44:40.249Z,6680
2019-03-16T11:45:41.684Z,6840
2019-03-16T11:46:43.084Z,6864
2019-03-16T11:47:44.481Z,6752
2019-03-16T11:48:45.884Z,6424
2019-03-16T11:49:47.308Z,6000
2019-03-16T11:50:48.970Z,6552
2019-03-16T11:51:50.086Z,6308
2019-03-16T11:52:51.476Z,6172
2019-03-16T11:53:52.884Z,5848
2019-03-16T11:54:54.294Z,5284
2019-03-16T11:55:55.691Z,4968
2019-03-16T11:56:57.101Z,4780
2019-03-16T11:57:58.528Z,4552
2019-03-16T11:58:59.933Z,4096
2019-03-16T12:00:01.333Z,3968
2019-03-16T12:01:02.733Z,3800
2019-03-16T12:02:05.604Z,3760
2019-03-16T12:03:05.502Z,3916
2019-03-16T12:04:06.901Z,3896
2019-03-16T12:05:08.299Z,3660
2019-03-16T12:06:09.695Z,3352
2019-03-16T12:07:11.099Z,3116
2019-03-16T12:08:12.501Z,2808
2019-03-16T12:09:13.902Z,2728
2019-03-16T12:10:15.306Z,2908
2019-03-16T12:11:16.704Z,3184
2019-03-16T12:12:18.127Z,3340
2019-03-16T12:13:19.765Z,3316
2019-03-16T12:14:20.889Z,3112
2019-03-16T12:15:22.292Z,3028
2019-03-16T12:16:23.690Z,3144
2019-03-16T12:17:25.098Z,3292
2019-03-16T12:18:26.505Z,3452
2019-03-16T12:19:27.932Z,3512
2019-03-16T12:20:29.329Z,3568
2019-03-16T12:21:30.729Z,3508
2019-03-16T12:22:32.149Z,3464
2019-03-16T12:23:33.550Z,3412
2019-03-16T12:24:34.967Z,3320
2019-03-16T12:25:37.354Z,3308
2019-03-16T12:26:38.777Z,3196
2019-03-16T12:27:40.235Z,3116
2019-03-16T12:28:41.681Z,3124
2019-03-16T12:29:43.069Z,3148
2019-03-16T12:30:44.493Z,3116
2019-03-16T12:31:45.901Z,3016
2019-03-16T12:32:47.310Z,2976
2019-03-16T12:33:48.723Z,3020
2019-03-16T12:34:50.150Z,3056
2019-03-16T12:35:51.536Z,2980
2019-03-16T12:36:52.950Z,3104
2019-03-16T12:37:54.369Z,3308
2019-03-16T12:38:55.783Z,3468
2019-03-16T12:39:57.195Z,3564
2019-03-16T12:40:58.606Z,3640
2019-03-16T12:42:00.016Z,3624
2019-03-16T12:43:01.420Z,3500
2019-03-16T12:44:02.846Z,3372
2019-03-16T12:45:04.252Z,3152
2019-03-16T12:46:05.678Z,2916
2019-03-16T12:47:07.082Z,2804
2019-03-16T12:48:08.478Z,2740
2019-03-16T12:49:09.877Z,2716
2019-03-16T12:50:11.320Z,2732
2019-03-16T12:51:12.663Z,2724
2019-03-16T12:52:14.071Z,2752
2019-03-16T12:53:15.475Z,2868
2019-03-16T12:54:16.905Z,3048
2019-03-16T12:55:18.334Z,3248
2019-03-16T12:56:19.740Z,3448
2019-03-16T12:57:21.165Z,3596
2019-03-16T12:58:22.565Z,3584
2019-03-16T12:59:23.987Z,3392
2019-03-16T13:00:25.390Z,3256
2019-03-16T13:01:26.811Z,3176
2019-03-16T13:02:28.218Z,3160
2019-03-16T13:03:29.625Z,3188
2019-03-16T13:04:31.079Z,3236
2019-03-16T13:05:32.512Z,3252
2019-03-16T13:06:33.918Z,3208
2019-03-16T13:07:35.335Z,3116
2019-03-16T13:08:36.806Z,3036
2019-03-16T13:09:38.232Z,3000
2019-03-16T13:10:39.695Z,3000
2019-03-16T13:11:41.108Z,3012
2019-03-16T13:12:42.513Z,3012
2019-03-16T13:13:43.911Z,2980
2019-03-16T13:14:46.008Z,2884
2019-03-16T13:15:47.421Z,2756
2019-03-16T13:16:48.826Z,2588
2019-03-16T13:17:50.280Z,2420
2019-03-16T13:18:51.635Z,2312
2019-03-16T13:19:53.057Z,2268
2019-03-16T13:20:54.448Z,2316
2019-03-16T13:21:55.845Z,2312
2019-03-16T13:22:57.248Z,2180
2019-03-16T13:23:58.643Z,1956
2019-03-16T13:25:00.035Z,1776
2019-03-16T13:26:01.424Z,1660
2019-03-16T13:27:02.838Z,1512
2019-03-16T13:28:04.229Z,1332
2019-03-16T13:29:05.649Z,1224
2019-03-16T13:30:07.046Z,1188
2019-03-16T13:31:08.444Z,1232
2019-03-16T13:32:09.862Z,1304
2019-03-16T13:33:11.276Z,1380
2019-03-16T13:34:12.667Z,1388
2019-03-16T13:35:14.071Z,1388
2019-03-16T13:36:15.487Z,1436
2019-03-16T13:37:16.928Z,1528
2019-03-16T13:38:18.327Z,1616
2019-03-16T13:39:22.547Z,1776
2019-03-16T13:40:21.088Z,1792
2019-03-16T13:41:22.510Z,1608
2019-03-16T13:42:23.899Z,1464
2019-03-16T13:43:25.298Z,1332
2019-03-16T13:44:26.690Z,1160
2019-03-16T13:45:28.086Z,1080
2019-03-16T13:46:29.485Z,1016
2019-03-16T13:47:30.912Z,948
2019-03-16T13:48:32.321Z,908
2019-03-16T13:49:33.719Z,944
2019-03-16T13:50:35.118Z,1072
2019-03-16T13:51:36.489Z,1196
2019-03-16T13:52:37.883Z,1168
2019-03-16T13:53:39.281Z,1196
2019-03-16T13:54:40.632Z,1272
2019-03-16T13:55:42.029Z,1392
2019-03-16T13:56:43.419Z,1476
2019-03-16T13:57:44.818Z,1472
2019-03-16T13:58:46.179Z,1404
2019-03-16T13:59:47.587Z,1320
2019-03-16T14:00:49.003Z,1264
2019-03-16T14:01:50.384Z,1224
2019-03-16T14:02:51.775Z,1220
2019-03-16T14:03:53.171Z,1240
2019-03-16T14:04:54.577Z,1256
2019-03-16T14:05:55.928Z,1268
2019-03-16T14:06:57.337Z,1304
2019-03-16T14:07:58.771Z,1352
2019-03-16T14:09:00.165Z,1384
2019-03-16T14:10:01.560Z,1348
2019-03-16T14:11:02.960Z,1236
2019-03-16T14:12:04.324Z,1252